Time;durP1;ratioP1;P1;durP2;ratioP2;P2;SDS_P1;SDS_P2;PMS_P1;PMS_P2;Temp;Humidity;BMP_temperature;BMP_pressure;BME280_temperature;BME280_humidity;BME280_pressure;Samples;Min_cycle;Max_cycle;Signal;HPM_P1;HPM_P2
2023/08/14 00:00:53;;;;;;;0.22;0.22;;;24.40;56.20;;;;;;6305168;22;20280;-82
2023/08/14 00:03:23;;;;;;;0.30;0.30;;;24.40;56.30;;;;;;6305311;22;20230;-82
2023/08/14 00:05:52;;;;;;;0.32;0.32;;;24.30;56.10;;;;;;6305465;22;20513;-83
2023/08/14 00:08:22;;;;;;;0.73;0.60;;;24.30;56.10;;;;;;6305380;22;20192;-82
2023/08/14 00:10:53;;;;;;;0.38;0.38;;;24.30;56.30;;;;;;6305528;22;20200;-81
2023/08/14 00:13:22;;;;;;;0.30;0.30;;;24.20;56.30;;;;;;6306557;22;20181;-82
2023/08/14 00:15:51;;;;;;;0.30;0.30;;;24.20;56.30;;;;;;6305973;22;20230;-82
2023/08/14 00:18:19;;;;;;;0.30;0.30;;;24.20;56.60;;;;;;6277960;22;20169;-82
2023/08/14 00:20:48;;;;;;;0.40;0.40;;;24.20;56.60;;;;;;6306125;22;20204;-81
2023/08/14 00:23:16;;;;;;;1.30;0.63;;;24.10;56.80;;;;;;6304322;22;20669;-82
2023/08/14 00:25:46;;;;;;;0.30;0.30;;;24.10;56.80;;;;;;6304945;22;20479;-81
2023/08/14 00:28:14;;;;;;;0.73;0.47;;;24.10;56.90;;;;;;6303953;22;20193;-82
2023/08/14 00:30:43;;;;;;;0.25;0.25;;;24.10;57.20;;;;;;6307072;22;20256;-82
2023/08/14 00:33:11;;;;;;;0.43;0.43;;;24.00;57.20;;;;;;6305962;22;20189;-82
2023/08/14 00:35:40;;;;;;;1.02;0.95;;;24.00;58.10;;;;;;6303810;22;20303;-83
2023/08/14 00:38:08;;;;;;;0.75;0.63;;;24.00;57.60;;;;;;6304290;22;20622;-82
2023/08/14 00:40:39;;;;;;;1.20;0.95;;;23.90;57.60;;;;;;6305280;22;20175;-82
2023/08/14 00:43:08;;;;;;;0.70;0.70;;;23.90;57.80;;;;;;6303436;22;20226;-82
2023/08/14 00:45:37;;;;;;;3.13;0.68;;;23.90;58.10;;;;;;6301909;22;20629;-82
2023/08/14 00:48:14;;;;;;;0.63;0.50;;;23.90;58.00;;;;;;6303452;22;20154;-82
2023/08/14 00:50:44;;;;;;;0.40;0.40;;;23.80;57.90;;;;;;6302545;22;20247;-82
2023/08/14 00:53:14;;;;;;;0.45;0.45;;;23.80;57.80;;;;;;6303348;22;20193;-82
2023/08/14 00:55:43;;;;;;;0.70;0.70;;;23.80;58.00;;;;;;6275118;22;20158;-82
2023/08/14 00:58:13;;;;;;;0.63;0.47;;;23.70;58.20;;;;;;6303343;22;20176;-81
2023/08/14 01:00:44;;;;;;;1.10;0.82;;;23.70;58.50;;;;;;6304545;22;20157;-82
2023/08/14 01:03:13;;;;;;;1.00;0.45;;;23.70;58.90;;;;;;6305904;22;20154;-82
2023/08/14 01:05:42;;;;;;;0.50;0.50;;;23.70;59.00;;;;;;6304025;22;20185;-83
2023/08/14 01:08:10;;;;;;;0.57;0.57;;;23.60;58.90;;;;;;6304393;22;20173;-80
2023/08/14 01:10:49;;;;;;;0.30;0.30;;;23.60;59.10;;;;;;6302300;22;20248;-82
2023/08/14 01:13:30;;;;;;;0.50;0.40;;;23.60;59.20;;;;;;6303360;22;20561;-82
2023/08/14 01:16:02;;;;;;;0.32;0.32;;;23.50;59.10;;;;;;6275879;22;20672;-81
2023/08/14 01:18:33;;;;;;;0.43;0.43;;;23.50;59.20;;;;;;6303663;22;20598;-80
2023/08/14 01:21:12;;;;;;;0.40;0.40;;;23.50;59.20;;;;;;6274080;22;20196;-82
2023/08/14 01:23:52;;;;;;;0.50;0.50;;;23.50;59.20;;;;;;6302426;22;20161;-81
2023/08/14 01:26:22;;;;;;;0.75;0.73;;;23.40;59.20;;;;;;6304029;22;20161;-81
2023/08/14 01:28:53;;;;;;;0.25;0.25;;;23.40;59.20;;;;;;6304759;22;20154;-81
2023/08/14 01:31:22;;;;;;;0.20;0.20;;;23.40;59.30;;;;;;6304534;22;20153;-81
2023/08/14 01:33:50;;;;;;;0.43;0.40;;;23.40;59.40;;;;;;6304938;22;20280;-81
2023/08/14 01:36:27;;;;;;;0.47;0.40;;;23.40;59.50;;;;;;6303473;22;20165;-83
2023/08/14 01:39:05;;;;;;;0.30;0.30;;;23.40;59.50;;;;;;6304954;22;20161;-82
2023/08/14 01:41:40;;;;;;;1.40;0.50;;;23.30;59.60;;;;;;6304740;22;20153;-82
2023/08/14 01:44:12;;;;;;;0.75;0.65;;;23.30;59.80;;;;;;6303345;22;20157;-82
2023/08/14 01:46:42;;;;;;;0.68;0.43;;;23.30;59.90;;;;;;6302751;22;20193;-81
2023/08/14 01:49:14;;;;;;;1.83;0.68;;;23.20;59.90;;;;;;6303053;22;20176;-82
2023/08/14 01:51:44;;;;;;;0.35;0.35;;;23.20;60.10;;;;;;6304606;22;20169;-81
2023/08/14 01:54:13;;;;;;;0.98;0.80;;;23.20;60.20;;;;;;6303216;22;20291;-83
2023/08/14 01:56:43;;;;;;;0.47;0.47;;;23.20;60.40;;;;;;6275820;22;20181;-83
2023/08/14 01:59:12;;;;;;;0.47;0.47;;;23.10;60.90;;;;;;6303779;22;20555;-83
2023/08/14 02:01:40;;;;;;;0.65;0.65;;;23.10;60.80;;;;;;6304121;22;20165;-82
2023/08/14 02:04:09;;;;;;;0.50;0.45;;;23.10;61.00;;;;;;6317107;22;20199;-82
2023/08/14 02:06:38;;;;;;;0.40;0.40;;;23.10;61.40;;;;;;6295486;22;20177;-82
2023/08/14 02:09:06;;;;;;;0.40;0.40;;;23.10;61.40;;;;;;6324700;22;20172;-82
2023/08/14 02:11:36;;;;;;;0.55;0.55;;;23.00;61.60;;;;;;6322693;22;20217;-82
2023/08/14 02:14:06;;;;;;;4.00;0.90;;;23.00;61.80;;;;;;6325237;22;20195;-81
2023/08/14 02:16:36;;;;;;;1.27;0.60;;;23.00;62.10;;;;;;6323738;22;20225;-81
2023/08/14 02:19:05;;;;;;;0.85;0.47;;;22.90;62.80;;;;;;6324212;22;20142;-82
2023/08/14 02:21:33;;;;;;;0.77;0.60;;;22.90;62.70;;;;;;6322160;22;20222;-82
2023/08/14 02:24:02;;;;;;;1.58;0.57;;;22.90;62.90;;;;;;6324800;22;20180;-82
2023/08/14 02:26:30;;;;;;;0.82;0.50;;;22.90;63.20;;;;;;6322189;22;20161;-82
2023/08/14 02:28:58;;;;;;;0.95;0.85;;;22.90;64.50;;;;;;6323491;22;20169;-81
2023/08/14 02:31:28;;;;;;;0.75;0.75;;;22.90;63.80;;;;;;6322953;22;20188;-82
2023/08/14 02:33:58;;;;;;;1.38;0.50;;;22.80;63.80;;;;;;6322165;22;20559;-82
2023/08/14 02:36:27;;;;;;;0.57;0.57;;;22.80;64.50;;;;;;6323469;22;20154;-82
2023/08/14 02:38:56;;;;;;;0.43;0.43;;;22.80;64.60;;;;;;6322456;22;20164;-82
2023/08/14 02:41:24;;;;;;;0.28;0.28;;;22.80;64.80;;;;;;6325636;22;20176;-82
2023/08/14 02:43:53;;;;;;;0.68;0.68;;;22.70;65.00;;;;;;6323739;22;20230;-81
2023/08/14 02:46:22;;;;;;;0.90;0.40;;;22.70;64.90;;;;;;6323641;22;20199;-81
2023/08/14 02:48:51;;;;;;;0.47;0.47;;;22.70;65.10;;;;;;6323982;22;20169;-81
2023/08/14 02:51:20;;;;;;;0.50;0.50;;;22.70;65.30;;;;;;6323566;22;20270;-80
2023/08/14 02:53:48;;;;;;;2.72;0.73;;;22.60;65.50;;;;;;6323416;22;20260;-82
2023/08/14 02:56:17;;;;;;;0.40;0.40;;;22.60;65.20;;;;;;6308862;22;20179;-81
2023/08/14 02:58:45;;;;;;;0.63;0.45;;;22.70;65.30;;;;;;6311364;22;20176;-82
2023/08/14 03:01:14;;;;;;;0.30;0.30;;;22.60;65.10;;;;;;6307937;22;20511;-82
2023/08/14 03:03:42;;;;;;;0.25;0.25;;;22.60;65.10;;;;;;6307906;22;20206;-82
2023/08/14 03:06:12;;;;;;;0.68;0.50;;;22.60;65.60;;;;;;6307847;22;20173;-83
2023/08/14 03:08:40;;;;;;;1.40;1.30;;;22.50;65.60;;;;;;6309499;22;20169;-82
2023/08/14 03:11:09;;;;;;;1.85;0.82;;;22.60;65.80;;;;;;6308593;22;20169;-83
2023/08/14 03:13:37;;;;;;;0.38;0.38;;;22.60;66.10;;;;;;6309607;22;20189;-82
2023/08/14 03:16:06;;;;;;;0.45;0.45;;;22.50;66.40;;;;;;6308814;22;20195;-82
2023/08/14 03:18:34;;;;;;;0.63;0.63;;;22.50;66.60;;;;;;6309943;22;20249;-81
2023/08/14 03:21:04;;;;;;;0.60;0.60;;;22.50;66.60;;;;;;6308604;22;20169;-82
2023/08/14 03:23:34;;;;;;;0.40;0.40;;;22.50;66.90;;;;;;6309577;22;20218;-82
2023/08/14 03:26:02;;;;;;;0.88;0.85;;;22.40;66.80;;;;;;6310196;22;20268;-82
2023/08/14 03:28:31;;;;;;;0.75;0.75;;;22.40;67.00;;;;;;6309614;22;20249;-82
2023/08/14 03:31:00;;;;;;;1.58;0.70;;;22.40;67.30;;;;;;6310157;22;20173;-82
2023/08/14 03:33:28;;;;;;;0.60;0.60;;;22.40;67.30;;;;;;6309353;22;20252;-82
2023/08/14 03:35:57;;;;;;;0.40;0.40;;;22.40;67.30;;;;;;6308248;22;20547;-82
2023/08/14 03:38:25;;;;;;;1.10;0.60;;;22.40;67.60;;;;;;6306611;22;20391;-82
2023/08/14 03:40:55;;;;;;;0.40;0.40;;;22.40;67.70;;;;;;6306447;22;20204;-82
2023/08/14 03:43:24;;;;;;;0.50;0.50;;;22.40;68.60;;;;;;6304281;22;20546;-82
2023/08/14 03:45:52;;;;;;;2.50;0.70;;;22.40;68.60;;;;;;6302676;22;20172;-81
2023/08/14 03:48:20;;;;;;;0.63;0.63;;;22.40;68.30;;;;;;6304159;22;20248;-81
2023/08/14 03:50:50;;;;;;;0.47;0.45;;;22.30;68.90;;;;;;6304684;22;20683;-82
2023/08/14 03:53:19;;;;;;;0.40;0.40;;;22.40;68.10;;;;;;6305546;22;20166;-81
2023/08/14 03:55:47;;;;;;;0.82;0.60;;;22.40;68.00;;;;;;6305892;22;20563;-82
2023/08/14 03:58:18;;;;;;;0.55;0.55;;;22.40;68.10;;;;;;6304366;22;20204;-81
2023/08/14 04:00:47;;;;;;;0.28;0.28;;;22.40;68.30;;;;;;6304645;22;20181;-82
2023/08/14 04:03:16;;;;;;;2.00;1.08;;;22.40;68.20;;;;;;6302421;22;20165;-82
2023/08/14 04:05:44;;;;;;;1.08;0.88;;;22.40;68.20;;;;;;6304490;22;20260;-81
2023/08/14 04:08:14;;;;;;;0.30;0.30;;;22.40;68.40;;;;;;6305189;22;20169;-81
2023/08/14 04:10:42;;;;;;;2.25;0.90;;;22.40;68.60;;;;;;6306007;22;20235;-82
2023/08/14 04:13:11;;;;;;;0.82;0.82;;;22.40;68.80;;;;;;6305659;22;20169;-80
2023/08/14 04:15:40;;;;;;;0.75;0.75;;;22.40;69.20;;;;;;6304744;22;20685;-81
2023/08/14 04:18:09;;;;;;;0.82;0.75;;;22.40;69.50;;;;;;6303775;22;20169;-80
2023/08/14 04:20:37;;;;;;;0.55;0.55;;;22.40;69.90;;;;;;6306497;22;20649;-82
2023/08/14 04:23:06;;;;;;;1.00;0.77;;;22.50;69.80;;;;;;6305833;22;20195;-81
2023/08/14 04:25:35;;;;;;;1.13;0.93;;;22.50;70.20;;;;;;6308577;22;20173;-80
2023/08/14 04:28:03;;;;;;;0.80;0.55;;;22.50;70.20;;;;;;6306882;22;20272;-81
2023/08/14 04:30:32;;;;;;;0.45;0.45;;;22.50;70.40;;;;;;6302932;22;20673;-81
2023/08/14 04:33:02;;;;;;;0.60;0.60;;;22.50;70.60;;;;;;6306483;22;20189;-82
2023/08/14 04:35:30;;;;;;;0.50;0.50;;;22.50;70.60;;;;;;6305052;22;20242;-81
2023/08/14 04:37:59;;;;;;;1.35;0.88;;;22.50;70.70;;;;;;6306243;22;20166;-81
2023/08/14 04:40:28;;;;;;;1.45;0.80;;;22.50;70.70;;;;;;6304505;22;20169;-80
2023/08/14 04:42:56;;;;;;;0.73;0.73;;;22.60;70.80;;;;;;6305851;22;20170;-81
2023/08/14 04:45:25;;;;;;;0.60;0.60;;;22.60;70.80;;;;;;6306186;22;20487;-82
2023/08/14 04:47:54;;;;;;;0.75;0.68;;;22.70;70.80;;;;;;6307746;22;20250;-82
2023/08/14 04:50:26;;;;;;;0.52;0.52;;;22.70;71.00;;;;;;6306722;22;20183;-82
2023/08/14 04:52:54;;;;;;;2.65;0.82;;;22.70;71.00;;;;;;6307601;22;20625;-82
2023/08/14 04:55:23;;;;;;;0.60;0.60;;;22.80;70.90;;;;;;6306094;22;20649;-82
2023/08/14 04:57:52;;;;;;;0.75;0.75;;;22.80;70.90;;;;;;6307115;22;20244;-82
2023/08/14 05:00:21;;;;;;;1.40;0.55;;;22.80;70.70;;;;;;6303872;22;20169;-83
2023/08/14 05:02:50;;;;;;;0.40;0.40;;;22.90;70.50;;;;;;6302959;22;20198;-83
2023/08/14 05:05:19;;;;;;;0.30;0.30;;;23.00;70.30;;;;;;6305556;22;20173;-83
2023/08/14 05:07:49;;;;;;;0.57;0.40;;;23.00;70.00;;;;;;6307797;22;20515;-82
2023/08/14 05:10:18;;;;;;;0.60;0.40;;;23.10;69.90;;;;;;6304624;22;20179;-82
2023/08/14 05:12:48;;;;;;;1.35;0.68;;;23.10;69.70;;;;;;6304639;22;20173;-81
2023/08/14 05:15:17;;;;;;;1.27;0.80;;;23.20;69.70;;;;;;6305378;22;20230;-83
2023/08/14 05:17:46;;;;;;;1.05;0.65;;;23.20;69.60;;;;;;6306477;22;20219;-83
2023/08/14 05:20:15;;;;;;;0.98;0.50;;;23.30;69.40;;;;;;6302723;22;20387;-81
2023/08/14 05:22:45;;;;;;;0.60;0.57;;;23.40;69.20;;;;;;6305963;22;20573;-83
2023/08/14 05:25:15;;;;;;;0.55;0.52;;;23.50;69.00;;;;;;6306493;22;20165;-84
2023/08/14 05:27:44;;;;;;;0.40;0.40;;;23.60;68.90;;;;;;6278705;22;20192;-81
2023/08/14 05:30:15;;;;;;;0.52;0.52;;;23.60;68.70;;;;;;6305927;22;20214;-82
2023/08/14 05:32:46;;;;;;;0.30;0.30;;;23.70;68.30;;;;;;6306507;22;20184;-81
2023/08/14 05:35:16;;;;;;;0.40;0.40;;;23.80;68.10;;;;;;6306517;22;20223;-83
2023/08/14 05:37:44;;;;;;;0.73;0.40;;;23.90;68.70;;;;;;6307097;22;20243;-82
2023/08/14 05:40:15;;;;;;;0.50;0.50;;;23.90;67.00;;;;;;6306430;22;20216;-82
2023/08/14 05:42:44;;;;;;;0.40;0.40;;;24.00;66.30;;;;;;6310501;22;20220;-82
2023/08/14 05:45:12;;;;;;;1.08;0.43;;;24.10;66.30;;;;;;6307553;22;20175;-81
2023/08/14 05:47:47;;;;;;;0.47;0.43;;;24.20;66.10;;;;;;6307512;22;20231;-86
2023/08/14 05:50:15;;;;;;;1.63;0.73;;;24.30;65.90;;;;;;6308589;22;20157;-84
2023/08/14 05:52:44;;;;;;;0.75;0.60;;;24.40;65.80;;;;;;6309834;22;20534;-89
2023/08/14 05:55:13;;;;;;;0.68;0.52;;;24.50;65.50;;;;;;6307549;22;20268;-85
2023/08/14 05:57:43;;;;;;;0.30;0.30;;;24.50;65.00;;;;;;6308907;22;20172;-86
2023/08/14 06:00:13;;;;;;;0.50;0.50;;;24.60;64.90;;;;;;6309093;22;20165;-85
2023/08/14 06:02:42;;;;;;;1.83;1.25;;;24.70;64.80;;;;;;6310108;22;20200;-86
2023/08/14 06:05:11;;;;;;;0.30;0.30;;;24.80;64.50;;;;;;6308112;22;20543;-86
2023/08/14 06:07:39;;;;;;;0.57;0.35;;;24.80;64.30;;;;;;6310120;22;20559;-86
2023/08/14 06:10:08;;;;;;;0.55;0.45;;;24.90;64.20;;;;;;6309535;22;20173;-84
2023/08/14 06:12:37;;;;;;;0.65;0.50;;;25.00;64.10;;;;;;6310581;22;20165;-84
2023/08/14 06:15:08;;;;;;;0.47;0.47;;;25.10;63.90;;;;;;6310332;22;20169;-85
2023/08/14 06:17:37;;;;;;;0.50;0.50;;;25.10;63.40;;;;;;6310615;22;20157;-86
2023/08/14 06:20:07;;;;;;;0.30;0.30;;;25.20;63.40;;;;;;6310098;22;20614;-85
2023/08/14 06:22:40;;;;;;;0.68;0.55;;;25.30;63.30;;;;;;6311557;22;20153;-85
2023/08/14 06:25:10;;;;;;;0.40;0.30;;;25.40;63.20;;;;;;6310165;22;20157;-86
2023/08/14 06:27:39;;;;;;;0.40;0.40;;;25.50;63.00;;;;;;6307671;22;20189;-84
2023/08/14 06:30:11;;;;;;;2.25;0.55;;;25.60;62.90;;;;;;6307851;22;20172;-85
2023/08/14 06:32:40;;;;;;;0.82;0.47;;;25.60;62.50;;;;;;6309735;22;20164;-86
2023/08/14 06:35:11;;;;;;;0.50;0.50;;;25.70;62.30;;;;;;6309977;22;20191;-86
2023/08/14 06:37:40;;;;;;;0.73;0.40;;;25.80;62.30;;;;;;6310971;22;20176;-86
2023/08/14 06:40:10;;;;;;;0.30;0.30;;;25.80;62.10;;;;;;6307411;22;20218;-84
2023/08/14 06:42:39;;;;;;;1.10;0.65;;;25.90;62.20;;;;;;6308001;22;20264;-86
2023/08/14 06:45:13;;;;;;;0.47;0.47;;;26.00;61.90;;;;;;6306251;22;20641;-86
2023/08/14 06:47:44;;;;;;;0.20;0.20;;;26.10;61.30;;;;;;6303923;22;20196;-85
2023/08/14 06:50:15;;;;;;;0.43;0.43;;;26.20;60.80;;;;;;6311076;22;20468;-85
2023/08/14 06:52:43;;;;;;;0.43;0.38;;;26.30;60.80;;;;;;6310477;22;20197;-86
2023/08/14 06:55:12;;;;;;;0.70;0.50;;;26.40;60.60;;;;;;6309729;22;20240;-87
2023/08/14 06:57:40;;;;;;;0.43;0.40;;;26.40;59.60;;;;;;6309153;22;20262;-88
2023/08/14 07:00:13;;;;;;;2.22;1.50;;;26.50;59.70;;;;;;6309625;22;20169;-86
2023/08/14 07:02:43;;;;;;;0.43;0.38;;;26.60;59.80;;;;;;6309587;22;20801;-87
2023/08/14 07:05:12;;;;;;;0.63;0.50;;;26.70;59.90;;;;;;6282131;22;20157;-86
2023/08/14 07:07:41;;;;;;;0.30;0.30;;;26.80;60.60;;;;;;6310038;22;20516;-85
2023/08/14 07:10:10;;;;;;;1.33;0.50;;;26.90;59.10;;;;;;6310117;22;20524;-87
2023/08/14 07:12:40;;;;;;;0.30;0.30;;;27.00;58.30;;;;;;6309272;22;20176;-86
2023/08/14 07:15:12;;;;;;;0.90;0.82;;;27.00;57.80;;;;;;6307193;22;20700;-85
2023/08/14 07:17:40;;;;;;;0.52;0.50;;;27.10;57.90;;;;;;6280966;22;20181;-86
2023/08/14 07:20:10;;;;;;;0.47;0.47;;;27.20;57.50;;;;;;6306852;22;20185;-87
2023/08/14 07:22:47;;;;;;;0.28;0.28;;;27.30;57.50;;;;;;6308675;22;20158;-86
2023/08/14 07:25:16;;;;;;;0.47;0.40;;;27.30;57.40;;;;;;6284231;22;20161;-86
2023/08/14 07:27:44;;;;;;;0.98;0.90;;;27.40;57.50;;;;;;6308717;22;20260;-85
2023/08/14 07:30:17;;;;;;;0.50;0.50;;;27.50;57.30;;;;;;6310774;22;20595;-87
2023/08/14 07:32:46;;;;;;;0.52;0.52;;;27.60;57.10;;;;;;6312932;22;20215;-88
2023/08/14 07:35:15;;;;;;;1.02;0.70;;;27.60;56.90;;;;;;6309348;22;20184;-87
2023/08/14 07:37:44;;;;;;;0.40;0.40;;;27.70;56.70;;;;;;6307077;22;20250;-86
2023/08/14 07:40:14;;;;;;;0.52;0.52;;;27.80;56.70;;;;;;6280713;22;20602;-86
2023/08/14 07:42:43;;;;;;;0.65;0.65;;;27.80;56.30;;;;;;6305169;22;20169;-85
2023/08/14 07:45:11;;;;;;;0.88;0.85;;;27.90;56.30;;;;;;6306224;22;20259;-87
2023/08/14 07:47:42;;;;;;;0.30;0.30;;;27.90;55.30;;;;;;6310614;22;20195;-85
2023/08/14 07:50:12;;;;;;;0.25;0.25;;;28.00;55.30;;;;;;6311653;22;20166;-86
2023/08/14 07:52:41;;;;;;;0.63;0.63;;;28.00;55.20;;;;;;6311517;22;20165;-86
2023/08/14 07:55:09;;;;;;;0.32;0.32;;;28.10;54.80;;;;;;6310918;22;20676;-86
2023/08/14 07:57:40;;;;;;;0.85;0.85;;;28.20;54.30;;;;;;6285141;22;20280;-88
2023/08/14 08:00:11;;;;;;;0.73;0.50;;;28.20;54.40;;;;;;6311528;22;20157;-87
2023/08/14 08:02:41;;;;;;;0.40;0.40;;;28.30;55.30;;;;;;6283367;22;20153;-86
2023/08/14 08:05:10;;;;;;;0.60;0.43;;;28.40;54.30;;;;;;6305467;22;20602;-86
2023/08/14 08:07:39;;;;;;;0.40;0.40;;;28.50;54.00;;;;;;6308304;22;20168;-83
2023/08/14 08:10:07;;;;;;;0.98;0.70;;;28.50;52.50;;;;;;6306990;22;20169;-85
2023/08/14 08:12:36;;;;;;;0.73;0.52;;;28.60;52.90;;;;;;6308323;22;20165;-88
2023/08/14 08:15:06;;;;;;;0.55;0.40;;;28.70;53.20;;;;;;6305839;22;20638;-84
2023/08/14 08:17:34;;;;;;;1.02;0.65;;;28.70;52.80;;;;;;6307722;22;20193;-85
2023/08/14 08:20:05;;;;;;;0.75;0.47;;;28.70;52.50;;;;;;6307097;22;20175;-85
2023/08/14 08:22:34;;;;;;;0.40;0.40;;;28.80;52.00;;;;;;6307821;22;20666;-85
2023/08/14 08:25:03;;;;;;;0.82;0.73;;;28.80;51.10;;;;;;6307115;22;20221;-87
2023/08/14 08:27:32;;;;;;;2.38;0.30;;;28.90;51.80;;;;;;6307250;22;20271;-85
2023/08/14 08:30:00;;;;;;;0.70;0.70;;;29.00;51.30;;;;;;6306617;22;20939;-84
2023/08/14 08:32:29;;;;;;;0.63;0.50;;;29.00;51.10;;;;;;6304891;22;20173;-84
2023/08/14 08:34:58;;;;;;;0.22;0.22;;;29.10;50.90;;;;;;6307479;22;20494;-84
2023/08/14 08:37:28;;;;;;;0.30;0.30;;;29.10;50.00;;;;;;6309525;22;20239;-84
2023/08/14 08:39:57;;;;;;;0.30;0.30;;;29.20;50.30;;;;;;6310926;22;20187;-85
2023/08/14 08:42:26;;;;;;;0.45;0.35;;;29.30;50.20;;;;;;6306214;22;20183;-84
2023/08/14 08:45:02;;;;;;;1.05;1.02;;;29.40;49.50;;;;;;6309115;22;20176;-85
2023/08/14 08:47:32;;;;;;;0.20;0.20;;;29.40;49.80;;;;;;6308875;22;20157;-85
2023/08/14 08:50:04;;;;;;;0.30;0.30;;;29.50;49.90;;;;;;6303882;22;20653;-85
2023/08/14 08:52:37;;;;;;;0.40;0.40;;;29.60;49.70;;;;;;6308551;22;20236;-84
2023/08/14 08:55:06;;;;;;;0.40;0.40;;;29.60;49.30;;;;;;6305112;22;20506;-85
2023/08/14 08:57:36;;;;;;;0.57;0.57;;;29.60;49.00;;;;;;6303542;22;20185;-84
2023/08/14 09:00:06;;;;;;;1.00;0.60;;;29.60;48.30;;;;;;6304409;22;20248;-84
2023/08/14 09:02:34;;;;;;;0.45;0.45;;;29.70;48.80;;;;;;6305819;22;20193;-84
2023/08/14 09:05:03;;;;;;;0.73;0.63;;;29.80;48.50;;;;;;6305610;22;20234;-86
2023/08/14 09:07:33;;;;;;;0.65;0.65;;;29.80;47.90;;;;;;6310116;22;20503;-83
2023/08/14 09:10:03;;;;;;;0.63;0.40;;;29.90;48.50;;;;;;6309960;22;20169;-87
2023/08/14 09:12:32;;;;;;;0.40;0.40;;;30.00;48.00;;;;;;6306842;22;20185;-85
2023/08/14 09:15:05;;;;;;;1.05;0.50;;;30.00;46.80;;;;;;6307603;22;20240;-86
2023/08/14 09:17:34;;;;;;;1.05;0.55;;;30.00;46.90;;;;;;6308679;22;20193;-85
2023/08/14 09:20:04;;;;;;;0.40;0.40;;;30.10;46.70;;;;;;6309457;22;20165;-85
2023/08/14 09:22:46;;;;;;;0.40;0.40;;;30.20;46.80;;;;;;6309207;22;20618;-83
2023/08/14 09:25:16;;;;;;;0.40;0.40;;;30.20;47.10;;;;;;6308604;22;20219;-86
2023/08/14 09:27:45;;;;;;;0.38;0.30;;;30.20;47.40;;;;;;6307847;22;20257;-85
2023/08/14 09:30:14;;;;;;;0.85;0.82;;;30.30;46.70;;;;;;6308450;22;20169;-84
2023/08/14 09:32:43;;;;;;;0.30;0.30;;;30.30;46.50;;;;;;6308215;22;20169;-84
2023/08/14 09:35:11;;;;;;;0.40;0.40;;;30.40;47.10;;;;;;6307406;22;20676;-85
2023/08/14 09:37:40;;;;;;;0.90;0.70;;;30.40;47.50;;;;;;6307629;22;20204;-83
2023/08/14 09:40:13;;;;;;;0.65;0.35;;;30.50;47.80;;;;;;6308298;22;20494;-85
2023/08/14 09:42:43;;;;;;;1.05;0.50;;;30.60;47.60;;;;;;6308730;22;20637;-84
2023/08/14 09:45:13;;;;;;;0.30;0.30;;;30.60;46.90;;;;;;6304230;22;20191;-85
2023/08/14 09:47:43;;;;;;;1.17;0.90;;;30.60;46.60;;;;;;6307048;22;20165;-83
2023/08/14 09:50:16;;;;;;;0.52;0.52;;;30.70;47.00;;;;;;6307400;22;20854;-84
2023/08/14 09:52:45;;;;;;;0.50;0.50;;;30.70;47.10;;;;;;6280001;22;20197;-84
2023/08/14 09:55:15;;;;;;;0.40;0.40;;;30.70;47.40;;;;;;6307119;22;20168;-84
2023/08/14 09:57:45;;;;;;;0.50;0.32;;;30.70;46.30;;;;;;6307726;22;20212;-84
2023/08/14 10:00:14;;;;;;;0.45;0.30;;;30.80;46.70;;;;;;6305320;22;20169;-83
2023/08/14 10:02:45;;;;;;;0.47;0.45;;;30.80;47.00;;;;;;6302992;22;20191;-84
2023/08/14 10:05:15;;;;;;;0.43;0.43;;;30.90;47.10;;;;;;6306436;22;20205;-86
2023/08/14 10:07:44;;;;;;;2.70;0.95;;;31.00;47.30;;;;;;6305824;22;20169;-87
2023/08/14 10:10:14;;;;;;;0.40;0.40;;;31.00;47.10;;;;;;6307286;22;20154;-86
2023/08/14 10:12:50;;;;;;;2.20;1.05;;;31.10;47.20;;;;;;6306012;22;20625;-86
2023/08/14 10:15:25;;;;;;;0.30;0.30;;;31.10;46.80;;;;;;6309109;22;20157;-88
2023/08/14 10:17:58;;;;;;;0.40;0.40;;;31.20;46.90;;;;;;6309763;22;20253;-85
2023/08/14 10:20:32;;;;;;;0.28;0.28;;;31.20;47.10;;;;;;6307689;22;20165;-85
2023/08/14 10:23:03;;;;;;;1.75;0.63;;;31.30;47.00;;;;;;6308943;22;20157;-87
2023/08/14 10:25:35;;;;;;;0.38;0.35;;;31.30;46.60;;;;;;6311238;22;20157;-86
2023/08/14 10:28:07;;;;;;;0.22;0.22;;;31.40;46.90;;;;;;6308889;22;20197;-85
2023/08/14 10:30:36;;;;;;;1.77;0.73;;;31.50;47.10;;;;;;6308586;22;20161;-84
2023/08/14 10:33:12;;;;;;;0.75;0.75;;;31.50;46.60;;;;;;6306631;22;20242;-86
2023/08/14 10:35:50;;;;;;;3.55;0.90;;;31.60;46.10;;;;;;6308944;22;20164;-87
2023/08/14 10:38:27;;;;;;;0.40;0.40;;;31.60;46.20;;;;;;6310058;22;20244;-85
2023/08/14 10:41:07;;;;;;;0.98;0.45;;;31.70;46.10;;;;;;6309497;22;20165;-85
2023/08/14 10:43:37;;;;;;;0.52;0.52;;;31.70;46.00;;;;;;6307339;22;20610;-86
2023/08/14 10:46:09;;;;;;;0.40;0.40;;;31.80;45.90;;;;;;6305935;22;20165;-85
2023/08/14 10:48:38;;;;;;;0.50;0.40;;;31.80;45.70;;;;;;6307227;22;20165;-85
2023/08/14 10:51:09;;;;;;;0.63;0.52;;;31.80;45.40;;;;;;6308547;22;20168;-85
2023/08/14 10:53:38;;;;;;;0.52;0.45;;;31.90;45.20;;;;;;6309727;22;20154;-84
2023/08/14 10:56:06;;;;;;;0.30;0.30;;;31.90;45.20;;;;;;6310115;22;20191;-86
2023/08/14 10:58:53;;;;;;;0.40;0.40;;;32.00;45.50;;;;;;6309748;22;20666;-85
2023/08/14 11:01:21;;;;;;;0.30;0.30;;;32.00;45.70;;;;;;6307858;22;20165;-84
2023/08/14 11:04:09;;;;;;;0.20;0.20;;;32.00;45.60;;;;;;6308773;22;20177;-88
2023/08/14 11:07:05;;;;;;;0.73;0.55;;;32.10;45.20;;;;;;6305063;22;20184;-85
2023/08/14 11:09:34;;;;;;;0.85;0.40;;;32.20;45.30;;;;;;6310277;22;20173;-86
2023/08/14 11:12:05;;;;;;;0.90;0.45;;;32.20;45.60;;;;;;6309527;22;20252;-85
2023/08/14 11:14:38;;;;;;;1.35;0.70;;;32.30;45.00;;;;;;6308495;22;20473;-85
2023/08/14 11:17:08;;;;;;;1.95;0.38;;;32.30;44.80;;;;;;6308055;22;20164;-85
2023/08/14 11:19:36;;;;;;;0.40;0.40;;;32.40;45.20;;;;;;6309117;22;20638;-85
2023/08/14 11:22:06;;;;;;;3.30;0.50;;;32.40;45.30;;;;;;6308901;22;20230;-85
2023/08/14 11:24:36;;;;;;;1.00;0.57;;;32.40;45.10;;;;;;6309529;22;20169;-86
2023/08/14 11:27:06;;;;;;;1.55;0.90;;;32.40;44.90;;;;;;6309811;22;20284;-88
2023/08/14 11:29:37;;;;;;;0.38;0.38;;;32.50;44.30;;;;;;6312182;22;20180;-88
2023/08/14 11:32:21;;;;;;;3.13;0.60;;;32.50;44.80;;;;;;6311389;22;20168;-87
2023/08/14 11:34:51;;;;;;;0.38;0.38;;;32.60;44.50;;;;;;6311549;22;20505;-86
2023/08/14 11:37:20;;;;;;;1.13;0.75;;;32.60;44.30;;;;;;6311240;22;20173;-87
2023/08/14 11:39:49;;;;;;;0.60;0.30;;;32.60;44.30;;;;;;6309208;22;20177;-84
2023/08/14 11:42:17;;;;;;;0.32;0.32;;;32.60;43.90;;;;;;6308313;22;20204;-86
2023/08/14 11:44:48;;;;;;;0.40;0.40;;;32.60;43.80;;;;;;6311024;22;20491;-87
2023/08/14 11:47:17;;;;;;;0.47;0.47;;;32.60;44.10;;;;;;6308580;22;20240;-87
2023/08/14 11:49:46;;;;;;;0.65;0.63;;;32.60;44.10;;;;;;6309074;22;20161;-87
2023/08/14 11:52:14;;;;;;;0.85;0.65;;;32.60;44.20;;;;;;6309083;22;20169;-85
2023/08/14 11:54:44;;;;;;;0.43;0.32;;;32.70;44.30;;;;;;6309781;22;20183;-86
2023/08/14 11:57:14;;;;;;;1.30;0.80;;;32.80;43.70;;;;;;6305021;22;20165;-85
2023/08/14 11:59:45;;;;;;;0.43;0.43;;;32.80;43.60;;;;;;6309303;22;20189;-86
2023/08/14 12:02:15;;;;;;;0.40;0.40;;;32.90;43.60;;;;;;6308274;22;20180;-85
2023/08/14 12:04:44;;;;;;;0.30;0.30;;;32.90;43.30;;;;;;6308963;22;20183;-85
2023/08/14 12:07:12;;;;;;;1.52;0.55;;;32.90;43.20;;;;;;6307710;22;20166;-85
2023/08/14 12:09:41;;;;;;;0.75;0.50;;;33.00;43.30;;;;;;6309252;22;20173;-85
2023/08/14 12:12:11;;;;;;;0.40;0.40;;;33.00;43.00;;;;;;6307354;22;20499;-86
2023/08/14 12:14:41;;;;;;;0.40;0.40;;;33.00;43.10;;;;;;6308248;22;20188;-85
2023/08/14 12:17:11;;;;;;;0.32;0.32;;;33.00;42.90;;;;;;6307950;22;20175;-84
2023/08/14 12:19:50;;;;;;;0.60;0.60;;;33.00;42.80;;;;;;6307299;22;20185;-85
2023/08/14 12:22:21;;;;;;;0.57;0.55;;;33.00;42.80;;;;;;6305928;22;20160;-85
2023/08/14 12:24:51;;;;;;;3.13;0.47;;;33.10;42.80;;;;;;6306562;22;20153;-85
2023/08/14 12:27:21;;;;;;;0.65;0.47;;;33.10;42.80;;;;;;6308463;22;20236;-86
2023/08/14 12:29:52;;;;;;;0.30;0.30;;;33.10;42.20;;;;;;6309298;22;20154;-85
2023/08/14 12:32:21;;;;;;;0.60;0.60;;;33.20;43.00;;;;;;6308794;22;20528;-86
2023/08/14 12:34:52;;;;;;;0.50;0.50;;;33.20;42.70;;;;;;6307824;22;20248;-86
2023/08/14 12:37:21;;;;;;;0.50;0.50;;;33.20;42.50;;;;;;6307338;22;20157;-85
2023/08/14 12:39:52;;;;;;;0.40;0.40;;;33.20;42.30;;;;;;6306150;22;20193;-84
2023/08/14 12:42:21;;;;;;;0.63;0.63;;;33.20;42.60;;;;;;6306816;22;20234;-86
2023/08/14 12:44:53;;;;;;;0.45;0.45;;;33.20;42.60;;;;;;6307249;22;20633;-85
2023/08/14 12:47:21;;;;;;;0.35;0.35;;;33.20;42.10;;;;;;6305577;22;20236;-85
2023/08/14 12:49:52;;;;;;;0.90;0.50;;;33.30;42.60;;;;;;6305437;22;20173;-84
2023/08/14 12:52:21;;;;;;;0.50;0.40;;;33.30;42.70;;;;;;6306525;22;20177;-86
2023/08/14 12:54:49;;;;;;;0.40;0.40;;;33.30;42.90;;;;;;6306661;22;20214;-84
2023/08/14 12:57:32;;;;;;;0.30;0.30;;;33.20;42.70;;;;;;6304561;22;20216;-85
2023/08/14 13:00:01;;;;;;;0.32;0.32;;;33.20;42.80;;;;;;6306488;22;20231;-86
2023/08/14 13:02:30;;;;;;;0.60;0.60;;;33.20;42.80;;;;;;6307558;22;20180;-85